createdAt,value
2019-04-11T00:00:23.595Z,8.10
2019-04-11T00:02:53.167Z,8.00
2019-04-11T00:05:21.758Z,8.00
2019-04-11T00:07:50.357Z,7.90
2019-04-11T00:10:19.000Z,7.80
2019-04-11T00:12:48.518Z,7.80
2019-04-11T00:20:14.626Z,7.90
2019-04-11T00:22:43.740Z,7.90
2019-04-11T00:25:13.508Z,7.90
2019-04-11T00:27:43.362Z,7.80
2019-04-11T00:30:12.334Z,7.60
2019-04-11T00:32:41.445Z,7.50
2019-04-11T00:35:11.128Z,4.50
2019-04-11T00:37:39.765Z,7.50
2019-04-11T00:40:08.967Z,7.50
2019-04-11T00:42:38.749Z,7.60
2019-04-11T00:45:07.692Z,7.60
2019-04-11T00:50:07.330Z,7.50
2019-04-11T00:55:07.066Z,7.30
2019-04-11T00:57:36.986Z,7.30
2019-04-11T01:00:07.514Z,7.40
2019-04-11T01:02:36.105Z,7.40
2019-04-11T01:05:06.122Z,7.40
2019-04-11T01:07:35.310Z,7.40
2019-04-11T01:10:06.660Z,7.40
2019-04-11T01:15:05.033Z,7.30
2019-04-11T01:17:33.679Z,7.30
2019-04-11T01:20:08.349Z,7.30
2019-04-11T01:25:08.405Z,7.20
2019-04-11T01:27:38.412Z,7.10
2019-04-11T01:30:10.205Z,7.00
2019-04-11T01:32:38.838Z,7.00
2019-04-11T01:35:08.859Z,7.00
2019-04-11T01:40:07.781Z,7.10
2019-04-11T01:42:37.520Z,7.00
2019-04-11T01:45:07.470Z,7.10
2019-04-11T01:47:40.557Z,7.00
2019-04-11T01:50:10.560Z,7.00
2019-04-11T01:52:39.353Z,6.90
2019-04-11T01:55:08.337Z,6.80
2019-04-11T01:57:37.918Z,6.80
2019-04-11T02:00:08.052Z,6.70
2019-04-11T02:02:39.533Z,6.70
2019-04-11T02:05:10.677Z,6.60
2019-04-11T02:07:39.194Z,6.70
2019-04-11T02:15:08.253Z,6.50
2019-04-11T02:17:37.074Z,6.50
2019-04-11T02:20:07.611Z,6.40
2019-04-11T02:22:38.250Z,6.40
2019-04-11T02:25:09.502Z,6.30
2019-04-11T02:27:40.146Z,6.30
2019-04-11T02:30:11.304Z,6.20
2019-04-11T02:32:42.242Z,6.20
2019-04-11T02:35:11.209Z,6.20
2019-04-11T02:37:42.045Z,6.10
2019-04-11T02:40:11.276Z,6.10
2019-04-11T02:42:41.233Z,6.10
2019-04-11T02:45:24.433Z,6.00
2019-04-11T02:47:43.930Z,6.00
2019-04-11T02:50:14.856Z,6.00
2019-04-11T02:52:42.773Z,5.90
2019-04-11T02:55:14.356Z,5.90
2019-04-11T02:57:43.205Z,5.80
2019-04-11T03:00:13.170Z,5.70
2019-04-11T03:05:13.705Z,5.60
2019-04-11T03:07:42.664Z,5.70
2019-04-11T03:10:12.303Z,5.70
2019-04-11T03:12:43.325Z,5.60
2019-04-11T03:22:42.539Z,5.50
2019-04-11T03:25:11.661Z,5.50
2019-04-11T03:30:15.032Z,5.40
2019-04-11T03:38:04.097Z,5.40
2019-04-11T03:40:33.520Z,5.40
2019-04-11T03:42:54.343Z,5.40
2019-04-11T03:45:34.761Z,5.40
2019-04-11T03:50:18.876Z,5.40
2019-04-11T03:52:45.016Z,5.40
2019-04-11T03:55:15.286Z,5.30
2019-04-11T03:57:44.629Z,5.20
2019-04-11T04:00:15.385Z,5.20
2019-04-11T04:07:42.258Z,5.20
2019-04-11T04:12:40.874Z,5.00
2019-04-11T04:20:37.015Z,4.90
2019-04-11T04:23:09.584Z,4.90
2019-04-11T04:25:39.183Z,4.80
2019-04-11T04:30:40.545Z,4.80
2019-04-11T04:33:10.321Z,4.70
2019-04-11T04:35:40.668Z,4.70
2019-04-11T04:38:11.005Z,4.60
2019-04-11T04:43:11.857Z,4.40
2019-04-11T04:45:57.809Z,4.60
2019-04-11T04:48:12.426Z,4.60
2019-04-11T04:50:42.100Z,4.60
2019-04-11T04:53:11.170Z,4.70
2019-04-11T04:55:41.169Z,4.80
2019-04-11T04:58:09.924Z,4.80
2019-04-11T05:00:39.727Z,4.90
2019-04-11T05:03:09.864Z,5.00
2019-04-11T05:05:38.948Z,5.10
2019-04-11T05:08:08.355Z,5.30
2019-04-11T05:10:38.157Z,5.60
2019-04-11T05:13:07.765Z,6.10
2019-04-11T05:15:36.650Z,6.90
2019-04-11T05:18:06.146Z,7.50
2019-04-11T05:20:34.910Z,8.00
2019-04-11T05:23:04.336Z,8.70
2019-04-11T05:25:32.999Z,9.40
2019-04-11T05:28:02.241Z,9.80
2019-04-11T05:30:31.523Z,11.00
2019-04-11T05:33:00.157Z,11.00
2019-04-11T05:35:29.809Z,11.50
2019-04-11T05:37:58.470Z,12.00
2019-04-11T05:40:28.116Z,10.80
2019-04-11T05:42:57.615Z,10.30
2019-04-11T05:45:26.536Z,11.60
2019-04-11T05:47:57.089Z,13.50
2019-04-11T05:50:28.446Z,14.50
2019-04-11T05:53:01.158Z,14.70
2019-04-11T05:55:30.172Z,15.00
2019-04-11T05:58:00.843Z,14.90
2019-04-11T06:00:46.611Z,14.80
2019-04-11T06:03:15.520Z,15.10
2019-04-11T06:06:02.117Z,15.60
2019-04-11T06:08:32.328Z,15.80
2019-04-11T06:11:04.321Z,16.70
2019-04-11T06:13:34.538Z,18.10
2019-04-11T06:16:04.491Z,18.60
2019-04-11T06:18:45.779Z,18.60
2019-04-11T06:21:15.966Z,19.50
2019-04-11T06:23:49.735Z,19.80
2019-04-11T06:26:36.587Z,18.80
2019-04-11T06:29:16.338Z,20.60
2019-04-11T06:31:57.242Z,19.50
2019-04-11T06:34:27.679Z,21.40
2019-04-11T06:37:13.973Z,21.00
2019-04-11T06:39:57.840Z,20.10
2019-04-11T06:42:47.571Z,20.70
2019-04-11T06:45:33.826Z,21.40
2019-04-11T06:48:13.579Z,22.00
2019-04-11T06:50:49.650Z,22.40
2019-04-11T06:53:19.219Z,23.00
2019-04-11T06:55:49.446Z,24.10
2019-04-11T06:58:19.700Z,24.20
2019-04-11T07:00:50.038Z,25.40
2019-04-11T07:03:25.524Z,24.60
2019-04-11T07:05:51.063Z,26.30
2019-04-11T07:08:22.279Z,25.10
2019-04-11T07:10:53.226Z,25.10
2019-04-11T07:13:39.313Z,26.70
2019-04-11T07:16:09.039Z,26.70
2019-04-11T07:18:46.393Z,28.00
2019-04-11T07:21:15.108Z,27.90
2019-04-11T07:24:01.758Z,28.90
2019-04-11T07:26:37.906Z,30.10
2019-04-11T07:29:25.684Z,30.00
2019-04-11T07:32:02.658Z,30.60
2019-04-11T07:34:47.997Z,26.00
2019-04-11T07:37:32.792Z,26.00
2019-04-11T07:40:15.708Z,26.70
2019-04-11T07:43:00.848Z,28.10
2019-04-11T07:45:34.270Z,27.90
2019-04-11T07:48:13.434Z,27.20
2019-04-11T07:50:42.305Z,27.20
2019-04-11T07:53:12.870Z,26.90
2019-04-11T07:55:42.309Z,26.80
2019-04-11T07:58:21.505Z,27.40
2019-04-11T08:00:55.961Z,27.10
2019-04-11T08:03:42.717Z,23.30
2019-04-11T08:06:13.337Z,23.40
2019-04-11T08:09:00.376Z,23.40
2019-04-11T08:11:31.725Z,24.10
2019-04-11T08:17:01.693Z,23.40
2019-04-11T08:19:32.994Z,22.30
2019-04-11T08:22:12.646Z,18.60
2019-04-11T08:35:28.859Z,13.60
2019-04-11T08:38:02.776Z,12.80
2019-04-11T08:45:34.933Z,12.50
2019-04-11T08:53:17.032Z,12.20
2019-04-11T08:55:53.643Z,12.00
2019-04-11T09:01:07.501Z,13.00
2019-04-11T09:03:59.300Z,12.70
2019-04-11T09:06:18.878Z,12.80
2019-04-11T09:08:49.290Z,13.30
2019-04-11T09:11:22.559Z,13.10
2019-04-11T09:16:56.825Z,12.80
2019-04-11T09:19:27.275Z,12.40
2019-04-11T09:22:09.578Z,12.60
2019-04-11T09:24:43.133Z,12.20
2019-04-11T09:27:31.106Z,12.10
2019-04-11T09:30:04.481Z,11.90
2019-04-11T09:35:08.395Z,12.20
2019-04-11T09:40:26.330Z,12.30
2019-04-11T09:42:59.628Z,12.00
2019-04-11T09:45:29.875Z,12.00
2019-04-11T09:51:00.857Z,11.80
2019-04-11T09:53:30.330Z,11.90
2019-04-11T09:56:00.622Z,12.10
2019-04-11T09:58:30.212Z,12.00
2019-04-11T10:01:10.226Z,11.80
2019-04-11T10:03:38.898Z,11.90
2019-04-11T10:06:09.417Z,12.10
2019-04-11T10:11:10.547Z,12.20
2019-04-11T10:13:53.325Z,12.30
2019-04-11T10:16:24.172Z,12.50
2019-04-11T10:19:07.568Z,12.40
2019-04-11T10:21:54.362Z,12.40
2019-04-11T10:24:36.799Z,12.20
2019-04-11T10:27:14.261Z,12.40
2019-04-11T10:29:44.575Z,12.30
2019-04-11T10:32:25.533Z,11.90
2019-04-11T10:35:05.981Z,11.70
2019-04-11T10:37:36.394Z,11.80
2019-04-11T10:40:08.147Z,11.90
2019-04-11T10:42:36.867Z,11.90
2019-04-11T10:45:12.194Z,12.20
2019-04-11T10:47:40.927Z,12.20
2019-04-11T10:50:15.363Z,11.80
2019-04-11T10:52:48.893Z,11.80
2019-04-11T10:55:19.734Z,11.50
2019-04-11T10:58:06.769Z,11.40
2019-04-11T11:00:53.617Z,11.60
2019-04-11T11:03:27.936Z,11.90
2019-04-11T11:06:05.403Z,11.80
2019-04-11T11:08:45.750Z,12.20
2019-04-11T11:11:17.491Z,12.00
2019-04-11T11:13:48.160Z,11.50
2019-04-11T11:16:18.405Z,11.40
2019-04-11T11:19:20.898Z,11.50
2019-04-11T11:24:05.449Z,11.80
2019-04-11T11:26:33.665Z,12.00
2019-04-11T11:29:20.619Z,13.00
2019-04-11T11:31:54.558Z,13.40
2019-04-11T11:34:25.368Z,13.90
2019-04-11T11:36:56.724Z,14.00
2019-04-11T11:42:02.420Z,14.30
2019-04-11T11:44:32.974Z,14.30
2019-04-11T11:47:19.941Z,14.30
2019-04-11T11:49:57.054Z,14.10
2019-04-11T11:52:34.556Z,13.30
2019-04-11T11:55:06.106Z,13.00
2019-04-11T11:57:37.089Z,12.80
2019-04-11T12:00:09.175Z,12.80
2019-04-11T12:02:42.390Z,13.10
2019-04-11T12:05:15.912Z,12.60
2019-04-11T12:07:47.376Z,12.60
2019-04-11T12:10:35.634Z,12.10
2019-04-11T12:13:11.617Z,12.10
2019-04-11T12:15:46.891Z,12.70
2019-04-11T12:18:22.813Z,12.40
2019-04-11T12:20:55.556Z,12.30
2019-04-11T12:26:03.195Z,12.90
2019-04-11T12:31:05.437Z,13.40
2019-04-11T12:33:52.144Z,13.00
2019-04-11T12:36:22.994Z,12.80
2019-04-11T12:38:59.350Z,12.80
2019-04-11T12:41:29.509Z,12.60
2019-04-11T12:44:05.722Z,12.80
2019-04-11T12:46:52.130Z,12.50
2019-04-11T12:49:25.091Z,12.40
2019-04-11T12:51:55.377Z,12.40
2019-04-11T12:54:25.585Z,13.00
2019-04-11T12:56:58.556Z,13.10
2019-04-11T12:59:27.205Z,12.60
2019-04-11T13:02:13.746Z,12.30
2019-04-11T13:07:13.932Z,11.90
2019-04-11T13:09:47.051Z,12.40
2019-04-11T13:12:35.702Z,12.90
2019-04-11T13:15:10.222Z,12.70
2019-04-11T13:20:10.635Z,12.30
2019-04-11T13:22:39.307Z,12.30
2019-04-11T13:25:25.819Z,12.10
2019-04-11T13:27:56.076Z,12.10
2019-04-11T13:30:35.358Z,11.80
2019-04-11T13:35:39.814Z,11.90
2019-04-11T13:38:18.948Z,11.90
2019-04-11T13:40:49.163Z,12.40
2019-04-11T13:43:28.212Z,12.70
2019-04-11T13:46:14.768Z,12.70
2019-04-11T13:49:01.248Z,12.70
2019-04-11T13:51:31.468Z,12.70
2019-04-11T13:54:17.383Z,12.10
2019-04-11T13:57:03.786Z,11.90
2019-04-11T13:59:37.021Z,11.70
2019-04-11T14:02:16.640Z,11.50
2019-04-11T14:04:54.568Z,11.60
2019-04-11T14:07:27.890Z,11.80
2019-04-11T14:12:30.177Z,11.90
2019-04-11T14:17:46.430Z,12.00
2019-04-11T14:20:33.561Z,12.10
2019-04-11T14:25:50.387Z,12.60
2019-04-11T14:28:20.597Z,12.20
2019-04-11T14:30:52.442Z,12.20
2019-04-11T14:33:23.564Z,13.50
2019-04-11T14:36:09.780Z,14.40
2019-04-11T14:38:46.590Z,14.40
2019-04-11T14:41:12.442Z,14.50
2019-04-11T14:43:48.754Z,14.40
2019-04-11T14:46:36.760Z,13.60
2019-04-11T14:49:05.833Z,12.60
2019-04-11T14:51:36.158Z,12.60
2019-04-11T14:54:11.689Z,12.60
2019-04-11T14:56:47.874Z,12.60
2019-04-11T14:59:35.023Z,12.30
2019-04-11T15:02:05.266Z,12.30
2019-04-11T15:04:51.711Z,12.30
2019-04-11T15:07:20.974Z,12.20
2019-04-11T15:10:09.545Z,11.90
2019-04-11T15:15:12.224Z,12.00
2019-04-11T15:17:42.111Z,12.20
2019-04-11T15:20:14.129Z,12.40
2019-04-11T15:22:44.511Z,12.10
2019-04-11T15:25:14.710Z,11.90
2019-04-11T15:28:01.397Z,12.00
2019-04-11T15:30:31.627Z,12.00
2019-04-11T15:33:18.083Z,12.20
2019-04-11T15:35:48.366Z,12.10
2019-04-11T15:40:51.719Z,12.10
2019-04-11T15:43:34.237Z,12.00
2019-04-11T15:48:43.054Z,11.70
2019-04-11T15:51:16.169Z,11.70
2019-04-11T15:53:46.305Z,11.60
2019-04-11T15:56:33.175Z,11.60
2019-04-11T15:59:12.973Z,11.60
2019-04-11T16:01:41.581Z,11.50
2019-04-11T16:04:30.177Z,11.50
2019-04-11T16:09:44.326Z,11.60
2019-04-11T16:12:26.526Z,11.80
2019-04-11T16:15:08.815Z,11.80
2019-04-11T16:20:25.489Z,11.60
2019-04-11T16:22:56.008Z,11.60
2019-04-11T16:25:28.980Z,11.50
2019-04-11T16:28:02.076Z,11.40
2019-04-11T16:30:32.371Z,11.30
2019-04-11T16:33:08.231Z,11.40
2019-04-11T16:35:56.881Z,11.50
2019-04-11T16:38:26.518Z,11.70
2019-04-11T16:40:59.204Z,11.60
2019-04-11T16:43:27.806Z,11.40
2019-04-11T16:46:03.777Z,11.40
2019-04-11T16:51:00.706Z,11.20
2019-04-11T16:55:57.795Z,11.10
2019-04-11T16:58:26.377Z,11.10
2019-04-11T17:03:25.069Z,11.00
2019-04-11T17:08:56.459Z,12.00
2019-04-11T17:11:26.752Z,12.20
2019-04-11T17:13:57.064Z,12.30
2019-04-11T17:16:24.937Z,12.30
2019-04-11T17:18:53.438Z,12.70
2019-04-11T17:21:23.326Z,12.70
2019-04-11T17:23:52.046Z,12.60
2019-04-11T17:26:22.935Z,12.70
2019-04-11T17:28:53.555Z,12.50
2019-04-11T17:31:21.153Z,12.20
2019-04-11T17:33:50.730Z,11.80
2019-04-11T17:36:19.389Z,11.80
2019-04-11T17:38:47.973Z,11.20
2019-04-11T17:41:16.547Z,10.90
2019-04-11T17:43:47.040Z,10.70
2019-04-11T17:46:15.452Z,10.70
2019-04-11T17:51:12.297Z,10.60
2019-04-11T17:53:40.985Z,10.60
2019-04-11T17:56:09.550Z,10.60
2019-04-11T17:58:38.147Z,10.60
2019-04-11T18:01:07.062Z,10.50
2019-04-11T18:03:35.607Z,10.50
2019-04-11T18:06:04.290Z,10.50
2019-04-11T18:08:32.865Z,10.30
2019-04-11T18:11:01.534Z,10.30
2019-04-11T18:16:01.199Z,10.00
2019-04-11T18:18:30.244Z,10.00
2019-04-11T18:20:58.922Z,10.20
2019-04-11T18:25:55.689Z,10.00
2019-04-11T18:28:24.186Z,10.40
2019-04-11T18:30:54.119Z,10.50
2019-04-11T18:33:23.995Z,11.00
2019-04-11T18:35:52.677Z,10.70
2019-04-11T18:40:49.450Z,10.10
2019-04-11T18:43:18.098Z,9.90
2019-04-11T18:45:46.696Z,9.80
2019-04-11T18:48:15.326Z,9.70
2019-04-11T18:53:12.157Z,9.60
2019-04-11T18:55:40.659Z,9.50
2019-04-11T19:00:38.338Z,9.30
2019-04-11T19:05:37.479Z,8.90
2019-04-11T19:13:02.666Z,8.80
2019-04-11T19:22:57.538Z,9.80
2019-04-11T19:25:26.110Z,9.50
2019-04-11T19:30:26.433Z,9.30
2019-04-11T19:32:54.952Z,9.20
2019-04-11T19:35:23.585Z,9.00
2019-04-11T19:37:52.149Z,9.00
2019-04-11T19:40:20.822Z,8.90
2019-04-11T19:42:49.851Z,8.90
2019-04-11T19:47:51.555Z,8.60
2019-04-11T19:50:18.822Z,8.60
2019-04-11T19:52:47.324Z,8.50
2019-04-11T19:55:17.689Z,8.40
2019-04-11T20:00:16.345Z,8.30
2019-04-11T20:02:44.909Z,8.20
2019-04-11T20:05:13.738Z,8.20
2019-04-11T20:07:42.322Z,8.10
2019-04-11T20:10:11.050Z,8.10
2019-04-11T20:15:08.838Z,8.10
2019-04-11T20:17:44.241Z,8.10
2019-04-11T20:25:07.131Z,7.90
2019-04-11T20:27:35.745Z,7.80
2019-04-11T20:30:05.950Z,7.80
2019-04-11T20:32:34.610Z,7.70
2019-04-11T20:35:03.113Z,7.60
2019-04-11T20:37:39.177Z,7.60
2019-04-11T20:42:30.696Z,7.50
2019-04-11T20:44:59.493Z,7.30
2019-04-11T20:47:29.511Z,7.30
2019-04-11T20:49:58.583Z,7.30
2019-04-11T20:52:27.602Z,7.30
2019-04-11T20:54:56.636Z,7.20
2019-04-11T20:57:26.356Z,7.20
2019-04-11T20:59:55.261Z,7.10
2019-04-11T21:02:28.178Z,7.00
2019-04-11T21:04:54.409Z,7.10
2019-04-11T21:07:23.162Z,7.00
2019-04-11T21:09:51.764Z,7.00
2019-04-11T21:12:20.655Z,6.90
2019-04-11T21:14:49.373Z,6.90
2019-04-11T21:17:18.122Z,6.80
2019-04-11T21:19:46.926Z,6.70
2019-04-11T21:22:15.650Z,6.70
2019-04-11T21:24:44.559Z,6.60
2019-04-11T21:29:41.906Z,6.50
2019-04-11T21:32:10.798Z,6.60
2019-04-11T21:34:39.500Z,6.50
2019-04-11T21:39:36.693Z,6.40
2019-04-11T21:42:06.138Z,6.40
2019-04-11T21:44:36.756Z,6.30
2019-04-11T21:47:07.372Z,6.30
2019-04-11T21:52:12.073Z,6.20
2019-04-11T21:57:06.696Z,6.20
2019-04-11T21:59:35.768Z,6.10
2019-04-11T22:04:35.562Z,6.10
2019-04-11T22:07:04.347Z,6.00
2019-04-11T22:16:59.780Z,5.80
2019-04-11T22:19:28.399Z,5.80
2019-04-11T22:21:57.105Z,5.70
2019-04-11T22:24:25.718Z,5.70
2019-04-11T22:26:56.776Z,5.60
2019-04-11T22:29:25.638Z,5.50
2019-04-11T22:31:56.063Z,5.60
2019-04-11T22:39:31.540Z,5.40
2019-04-11T22:41:59.954Z,5.40
2019-04-11T22:44:28.685Z,5.30
2019-04-11T22:46:57.336Z,5.30
2019-04-11T22:49:26.074Z,5.30
2019-04-11T22:51:54.690Z,5.30
2019-04-11T22:56:52.250Z,5.10
2019-04-11T22:59:21.358Z,5.00
2019-04-11T23:01:52.062Z,5.00
2019-04-11T23:04:20.818Z,5.10
2019-04-11T23:09:19.483Z,5.00
2019-04-11T23:11:48.284Z,4.90
2019-04-11T23:16:45.914Z,4.90
2019-04-11T23:19:15.066Z,4.90
2019-04-11T23:21:43.902Z,4.90
2019-04-11T23:24:12.454Z,4.80
2019-04-11T23:26:41.021Z,4.70
2019-04-11T23:29:09.580Z,4.70
2019-04-11T23:31:38.168Z,4.70
2019-04-11T23:34:06.671Z,4.70
2019-04-11T23:36:35.269Z,4.60
2019-04-11T23:39:05.745Z,4.60
2019-04-11T23:41:34.261Z,4.60
2019-04-11T23:44:03.054Z,4.60
2019-04-11T23:46:31.614Z,4.60
2019-04-11T23:49:00.190Z,4.60
2019-04-11T23:51:28.778Z,4.40
2019-04-11T23:53:59.743Z,4.40
2019-04-11T23:56:28.180Z,4.40
2019-04-11T23:59:01.839Z,4.50
